createdAt,value
2022-12-18T00:01:28.920Z,-2.16
2022-12-18T00:03:57.004Z,2.74
2022-12-18T00:06:26.269Z,-0.30
2022-12-18T00:08:54.172Z,-1.27
2022-12-18T00:11:25.039Z,-1.63
2022-12-18T00:13:54.296Z,-1.67
2022-12-18T00:16:24.418Z,-1.75
2022-12-18T00:18:54.646Z,-1.72
2022-12-18T00:21:22.782Z,-1.74
2022-12-18T00:23:51.382Z,-1.79
2022-12-18T00:26:25.863Z,-1.75
2022-12-18T00:28:53.992Z,-1.68
2022-12-18T00:31:24.504Z,-1.69
2022-12-18T00:33:53.966Z,-1.66
2022-12-18T00:36:29.587Z,-1.62
2022-12-18T00:38:59.165Z,-1.67
2022-12-18T00:41:45.074Z,-1.61
2022-12-18T00:44:16.049Z,-1.48
2022-12-18T00:46:45.362Z,-1.52
2022-12-18T00:49:12.404Z,-1.53
2022-12-18T00:51:39.360Z,-1.64
2022-12-18T00:54:06.455Z,-1.58
2022-12-18T00:56:33.388Z,-1.57
2022-12-18T00:59:00.341Z,-1.57
2022-12-18T01:01:27.922Z,-1.58
2022-12-18T01:03:54.927Z,-1.49
2022-12-18T01:06:21.968Z,-1.47
2022-12-18T01:08:48.947Z,-1.55
2022-12-18T01:11:19.231Z,-1.51
2022-12-18T01:13:46.219Z,-1.41
2022-12-18T01:16:16.301Z,-1.37
2022-12-18T01:18:43.815Z,-1.45
2022-12-18T01:21:14.640Z,-1.42
2022-12-18T01:23:42.082Z,-1.43
2022-12-18T01:26:14.275Z,-1.39
2022-12-18T01:28:41.769Z,-1.36
2022-12-18T01:31:20.701Z,-1.25
2022-12-18T01:33:49.812Z,-1.38
2022-12-18T01:36:24.256Z,-1.35
2022-12-18T01:38:52.974Z,-1.38
2022-12-18T01:41:26.032Z,-1.35
2022-12-18T01:44:00.377Z,-1.37
2022-12-18T01:46:28.412Z,-1.32
2022-12-18T01:49:02.137Z,-1.25
2022-12-18T01:51:31.026Z,-1.32
2022-12-18T01:53:58.740Z,-1.33
2022-12-18T01:56:25.741Z,-1.28
2022-12-18T01:59:04.865Z,-1.26
2022-12-18T02:01:33.637Z,-1.28
2022-12-18T02:04:24.635Z,-1.28
2022-12-18T02:07:26.568Z,-1.30
2022-12-18T02:10:03.211Z,-1.32
2022-12-18T02:12:46.286Z,-1.39
2022-12-18T02:15:24.781Z,-1.39
2022-12-18T02:18:02.390Z,-1.46
2022-12-18T02:20:50.123Z,-1.43
2022-12-18T02:23:37.460Z,-1.50
2022-12-18T02:26:26.836Z,-1.52
2022-12-18T02:29:23.806Z,-1.39
2022-12-18T02:31:56.093Z,-1.42
2022-12-18T02:34:29.385Z,-1.57
2022-12-18T02:36:58.611Z,-1.62
2022-12-18T02:39:27.906Z,-1.62
2022-12-18T02:41:55.046Z,-1.62
2022-12-18T02:44:22.009Z,-1.65
2022-12-18T02:46:54.463Z,-1.66
2022-12-18T02:50:03.353Z,-1.62
2022-12-18T02:52:51.626Z,-1.69
2022-12-18T02:55:48.941Z,-1.73
2022-12-18T02:59:09.171Z,-1.76
2022-12-18T03:01:53.258Z,-1.71
2022-12-18T03:04:27.921Z,-1.62
2022-12-18T03:07:01.470Z,-1.45
2022-12-18T03:09:37.986Z,-1.61
2022-12-18T03:12:25.588Z,-1.79
2022-12-18T03:15:04.249Z,-1.78
2022-12-18T03:17:34.699Z,-1.86
2022-12-18T03:20:11.693Z,-1.86
2022-12-18T03:22:42.417Z,-1.87
2022-12-18T03:25:14.418Z,-1.87
2022-12-18T03:27:48.615Z,-1.92
2022-12-18T03:30:18.034Z,-1.94
2022-12-18T03:33:08.861Z,-1.93
2022-12-18T03:35:41.237Z,-1.94
2022-12-18T03:38:08.952Z,-1.90
2022-12-18T03:41:24.897Z,-1.91
2022-12-18T03:44:12.911Z,-1.98
2022-12-18T03:47:17.769Z,-2.03
2022-12-18T03:50:12.799Z,-1.88
2022-12-18T03:52:53.917Z,-1.94
2022-12-18T03:55:22.820Z,-1.93
2022-12-18T03:57:51.072Z,-2.03
2022-12-18T04:00:20.599Z,-2.05
2022-12-18T04:02:53.282Z,-2.13
2022-12-18T04:05:22.776Z,-2.09
2022-12-18T04:07:51.824Z,-2.01
2022-12-18T04:10:19.630Z,-2.18
2022-12-18T04:12:46.761Z,-2.19
2022-12-18T04:15:14.214Z,-2.20
2022-12-18T04:17:49.672Z,-2.14
2022-12-18T04:20:17.570Z,-2.09
2022-12-18T04:22:44.558Z,-1.92
2022-12-18T04:25:13.543Z,-2.15
2022-12-18T04:27:40.680Z,-2.09
2022-12-18T04:30:09.200Z,-2.09
2022-12-18T04:32:36.246Z,-2.19
2022-12-18T04:35:05.243Z,-2.23
2022-12-18T04:37:32.215Z,-2.17
2022-12-18T04:39:59.262Z,-2.16
2022-12-18T04:42:26.195Z,-2.20
2022-12-18T04:44:53.130Z,-2.28
2022-12-18T04:47:20.073Z,-2.32
2022-12-18T04:49:47.089Z,-2.30
2022-12-18T04:52:14.020Z,-2.41
2022-12-18T04:54:40.949Z,-2.37
2022-12-18T04:57:07.978Z,-2.41
2022-12-18T04:59:34.980Z,-2.53
2022-12-18T05:02:02.009Z,-2.55
2022-12-18T05:04:29.073Z,-2.59
2022-12-18T05:06:56.047Z,-2.60
2022-12-18T05:09:22.965Z,-2.68
2022-12-18T05:11:50.013Z,-2.77
2022-12-18T05:14:16.958Z,-2.87
2022-12-18T05:16:43.888Z,-2.97
2022-12-18T05:19:11.502Z,-2.99
2022-12-18T05:21:38.796Z,-3.01
2022-12-18T05:24:06.209Z,-3.07
2022-12-18T05:26:33.148Z,-3.10
2022-12-18T05:29:00.181Z,-3.00
2022-12-18T05:31:27.216Z,-2.80
2022-12-18T05:33:55.034Z,-2.87
2022-12-18T05:36:21.985Z,-2.86
2022-12-18T05:38:48.985Z,-2.94
2022-12-18T05:41:16.097Z,-2.90
2022-12-18T05:43:43.852Z,-2.99
2022-12-18T05:46:16.358Z,-2.92
2022-12-18T05:48:43.689Z,-2.89
2022-12-18T05:51:15.569Z,-2.88
2022-12-18T05:53:43.846Z,-2.97
2022-12-18T05:56:22.426Z,-2.92
2022-12-18T05:58:54.441Z,-2.86
2022-12-18T06:01:26.153Z,-2.72
2022-12-18T06:03:53.480Z,-2.90
2022-12-18T06:06:27.031Z,-2.83
2022-12-18T06:08:55.995Z,-2.83
2022-12-18T06:11:27.292Z,-2.89
2022-12-18T06:13:58.984Z,-2.85
2022-12-18T06:16:28.088Z,-2.78
2022-12-18T06:18:58.613Z,-2.76
2022-12-18T06:21:26.060Z,-2.72
2022-12-18T06:23:53.097Z,-2.77
2022-12-18T06:26:26.180Z,-2.73
2022-12-18T06:28:54.976Z,-2.78
2022-12-18T06:31:22.002Z,-2.76
2022-12-18T06:33:49.015Z,-2.75
2022-12-18T06:36:16.863Z,-2.74
2022-12-18T06:38:45.350Z,-2.79
2022-12-18T06:41:16.147Z,-2.71
2022-12-18T06:43:44.757Z,-2.65
2022-12-18T06:46:12.822Z,-2.57
2022-12-18T06:48:40.392Z,-2.66
2022-12-18T06:51:07.697Z,-2.62
2022-12-18T06:53:34.664Z,-2.75
2022-12-18T06:56:10.415Z,-2.68
2022-12-18T06:58:39.353Z,-2.67
2022-12-18T07:01:09.703Z,-2.66
2022-12-18T07:03:38.788Z,-2.63
2022-12-18T07:06:07.010Z,-2.54
2022-12-18T07:08:34.370Z,-2.51
2022-12-18T07:11:05.469Z,-2.47
2022-12-18T07:13:32.923Z,-2.22
2022-12-18T07:16:26.985Z,-2.36
2022-12-18T07:18:56.227Z,-2.42
2022-12-18T07:21:24.617Z,-2.41
2022-12-18T07:23:51.764Z,-2.29
2022-12-18T07:26:21.787Z,-2.28
2022-12-18T07:28:49.502Z,-2.09
2022-12-18T07:31:21.579Z,-2.12
2022-12-18T07:33:50.214Z,-1.95
2022-12-18T07:36:17.387Z,-1.75
2022-12-18T07:38:47.229Z,-1.91
2022-12-18T07:41:14.881Z,-1.94
2022-12-18T07:43:42.731Z,-1.89
2022-12-18T07:46:11.829Z,-1.93
2022-12-18T07:48:42.292Z,-1.92
2022-12-18T07:51:11.567Z,-1.70
2022-12-18T07:53:39.157Z,-1.72
2022-12-18T07:56:28.109Z,-1.93
2022-12-18T07:58:58.014Z,-1.84
2022-12-18T08:01:25.450Z,-1.86
2022-12-18T08:03:52.760Z,-1.83
2022-12-18T08:06:22.703Z,-1.75
2022-12-18T08:08:56.681Z,-1.78
2022-12-18T08:11:26.174Z,-1.76
2022-12-18T08:13:53.644Z,-1.71
2022-12-18T08:16:22.771Z,-1.75
2022-12-18T08:18:50.469Z,-1.80
2022-12-18T08:21:30.884Z,-1.73
2022-12-18T08:24:00.568Z,-1.69
2022-12-18T08:26:30.618Z,-1.67
2022-12-18T08:28:59.836Z,-1.48
2022-12-18T08:31:29.383Z,-1.51
2022-12-18T08:33:57.082Z,-1.51
2022-12-18T08:36:25.437Z,-1.37
2022-12-18T08:38:54.182Z,-1.55
2022-12-18T08:41:22.194Z,-1.53
2022-12-18T08:44:07.775Z,-1.51
2022-12-18T08:46:40.875Z,-1.61
2022-12-18T08:49:09.198Z,-1.57
2022-12-18T08:51:37.023Z,-1.42
2022-12-18T08:54:06.385Z,-1.51
2022-12-18T08:56:34.460Z,-1.50
2022-12-18T08:59:01.539Z,-1.28
2022-12-18T09:01:29.433Z,-1.15
2022-12-18T09:03:56.764Z,-1.16
2022-12-18T09:06:24.304Z,-1.02
2022-12-18T09:08:51.558Z,-0.82
2022-12-18T09:11:25.723Z,-0.99
2022-12-18T09:13:54.828Z,-0.99
2022-12-18T09:16:30.136Z,-0.97
2022-12-18T09:19:02.959Z,-0.65
2022-12-18T09:21:35.972Z,-0.62
2022-12-18T09:24:08.632Z,-0.68
2022-12-18T09:26:36.659Z,-0.42
2022-12-18T09:29:04.499Z,-0.59
2022-12-18T09:31:31.470Z,-0.54
2022-12-18T09:33:58.453Z,-0.50
2022-12-18T09:36:25.456Z,-0.47
2022-12-18T09:38:52.456Z,-0.21
2022-12-18T09:41:48.485Z,-0.28
2022-12-18T09:44:41.429Z,-0.06
2022-12-18T09:47:21.607Z,-0.11
2022-12-18T09:49:53.644Z,0.05
2022-12-18T09:52:26.867Z,0.17
2022-12-18T09:55:11.974Z,-0.13
2022-12-18T09:57:48.721Z,-0.12
2022-12-18T10:00:23.400Z,-0.25
2022-12-18T10:02:54.131Z,-0.22
2022-12-18T10:05:42.398Z,-0.20
2022-12-18T10:08:25.466Z,-0.13
2022-12-18T10:11:27.082Z,-0.10
2022-12-18T10:14:16.819Z,0.09
2022-12-18T10:16:59.467Z,-0.10
2022-12-18T10:19:35.136Z,-0.06
2022-12-18T10:22:16.861Z,0.06
2022-12-18T10:25:05.156Z,0.12
2022-12-18T10:27:32.309Z,-0.06
2022-12-18T10:30:02.379Z,-0.09
2022-12-18T10:32:31.735Z,-0.16
2022-12-18T10:35:00.753Z,-0.19
2022-12-18T10:37:30.736Z,-0.11
2022-12-18T10:40:21.930Z,-0.09
2022-12-18T10:43:05.233Z,-0.18
2022-12-18T10:45:32.327Z,-0.14
2022-12-18T10:47:59.803Z,-0.07
2022-12-18T10:51:09.775Z,-0.06
2022-12-18T10:53:29.136Z,-0.01
2022-12-18T10:56:03.472Z,0.21
2022-12-18T10:58:33.877Z,0.21
2022-12-18T11:01:13.045Z,0.18
2022-12-18T11:03:47.793Z,0.26
2022-12-18T11:06:19.671Z,0.49
2022-12-18T11:09:26.035Z,0.37
2022-12-18T11:12:00.303Z,0.32
2022-12-18T11:14:34.781Z,0.52
2022-12-18T11:17:24.777Z,0.72
2022-12-18T11:20:10.487Z,0.62
2022-12-18T11:22:39.285Z,0.42
2022-12-18T11:25:32.359Z,0.51
2022-12-18T11:28:26.194Z,0.62
2022-12-18T11:31:17.047Z,0.51
2022-12-18T11:34:28.468Z,0.50
2022-12-18T11:36:56.375Z,0.38
2022-12-18T11:39:47.108Z,0.42
2022-12-18T11:42:39.434Z,0.86
2022-12-18T11:45:12.571Z,0.69
2022-12-18T11:48:25.977Z,0.49
2022-12-18T11:50:59.956Z,0.82
2022-12-18T11:53:28.576Z,0.82
2022-12-18T11:56:15.717Z,0.98
2022-12-18T11:59:18.839Z,0.56
2022-12-18T12:02:11.102Z,0.60
2022-12-18T12:05:27.413Z,0.96
2022-12-18T12:08:25.650Z,0.91
2022-12-18T12:11:21.439Z,0.91
2022-12-18T12:14:02.970Z,0.85
2022-12-18T12:17:10.156Z,1.29
2022-12-18T12:19:42.752Z,0.98
2022-12-18T12:22:31.167Z,0.86
2022-12-18T12:25:29.206Z,0.84
2022-12-18T12:28:17.177Z,0.74
2022-12-18T12:31:27.397Z,0.78
2022-12-18T12:34:08.749Z,0.72
2022-12-18T12:37:18.749Z,0.67
2022-12-18T12:39:49.393Z,0.67
2022-12-18T12:43:01.810Z,0.54
2022-12-18T12:45:57.022Z,0.45
2022-12-18T12:48:37.960Z,0.67
2022-12-18T12:51:33.128Z,0.87
2022-12-18T12:54:02.581Z,0.66
2022-12-18T12:56:47.326Z,0.50
2022-12-18T12:59:36.634Z,0.41
2022-12-18T13:02:16.517Z,0.40
2022-12-18T13:04:59.064Z,0.33
2022-12-18T13:07:47.181Z,0.29
2022-12-18T13:10:32.614Z,0.22
2022-12-18T13:13:17.937Z,0.24
2022-12-18T13:16:09.100Z,0.17
2022-12-18T13:18:36.568Z,0.06
2022-12-18T13:21:24.416Z,0.09
2022-12-18T13:23:51.738Z,0.27
2022-12-18T13:26:22.067Z,0.06
2022-12-18T13:28:56.228Z,0.17
2022-12-18T13:31:41.719Z,0.00
2022-12-18T13:37:42.871Z,-0.32
2022-12-18T13:40:41.206Z,-0.38
2022-12-18T13:43:25.437Z,-0.46
2022-12-18T13:46:43.187Z,-0.55
2022-12-18T13:49:42.500Z,-0.57
2022-12-18T13:52:34.312Z,-0.60
2022-12-18T13:55:08.109Z,-0.61
2022-12-18T13:57:41.785Z,-0.71
2022-12-18T14:00:24.136Z,-0.73
2022-12-18T14:02:52.156Z,-0.84
2022-12-18T14:05:30.954Z,-0.85
2022-12-18T14:08:05.859Z,-0.89
2022-12-18T14:10:42.231Z,-0.91
2022-12-18T14:13:43.090Z,-1.00
2022-12-18T14:16:17.679Z,-1.04
2022-12-18T14:18:56.358Z,-1.04
2022-12-18T14:21:31.129Z,-1.18
2022-12-18T14:24:17.564Z,-1.20
2022-12-18T14:26:51.024Z,-1.21
2022-12-18T14:29:27.739Z,-0.97
2022-12-18T14:32:18.656Z,-1.11
2022-12-18T14:34:52.095Z,-1.14
2022-12-18T14:37:27.301Z,-0.96
2022-12-18T14:40:10.590Z,-0.84
2022-12-18T14:42:38.798Z,-1.08
2022-12-18T14:45:42.386Z,-1.14
2022-12-18T14:48:23.362Z,-1.21
2022-12-18T14:51:04.533Z,-1.27
2022-12-18T14:53:39.210Z,-1.45
2022-12-18T14:56:35.553Z,-1.50
2022-12-18T14:59:23.865Z,-1.52
2022-12-18T15:02:12.287Z,-1.61
2022-12-18T15:04:44.667Z,-1.62
2022-12-18T15:07:24.484Z,-1.45
2022-12-18T15:10:22.137Z,-1.49
2022-12-18T15:13:10.576Z,-1.34
2022-12-18T15:15:37.648Z,-1.49
2022-12-18T15:18:13.669Z,-1.49
2022-12-18T15:20:49.538Z,-1.51
2022-12-18T15:23:45.417Z,-1.64
2022-12-18T15:26:15.920Z,-1.62
2022-12-18T15:28:57.014Z,-1.64
2022-12-18T15:31:29.849Z,-1.69
2022-12-18T15:33:56.930Z,-1.67
2022-12-18T15:36:26.490Z,-1.60
2022-12-18T15:39:02.194Z,-1.65
2022-12-18T15:41:37.669Z,-1.60
2022-12-18T15:44:26.467Z,-1.57
2022-12-18T15:46:53.640Z,-1.54
2022-12-18T15:49:20.778Z,-1.61
2022-12-18T15:51:55.867Z,-1.58
2022-12-18T15:54:43.227Z,-1.62
2022-12-18T15:57:24.197Z,-1.66
2022-12-18T15:59:59.179Z,-1.65
2022-12-18T16:02:26.893Z,-1.71
2022-12-18T16:04:55.113Z,-1.76
2022-12-18T16:07:24.579Z,-1.69
2022-12-18T16:09:52.735Z,-1.75
2022-12-18T16:12:25.532Z,-1.70
2022-12-18T16:14:52.537Z,-1.69
2022-12-18T16:17:19.528Z,-1.75
2022-12-18T16:19:46.754Z,-1.71
2022-12-18T16:22:26.307Z,-1.74
2022-12-18T16:24:54.417Z,-1.79
2022-12-18T16:27:22.817Z,-1.89
2022-12-18T16:29:50.388Z,-1.79
2022-12-18T16:32:23.420Z,-1.76
2022-12-18T16:34:50.822Z,-1.75
2022-12-18T16:37:18.171Z,-1.77
2022-12-18T16:39:45.598Z,-1.80
2022-12-18T16:42:19.820Z,-1.80
2022-12-18T16:44:48.974Z,-1.81
2022-12-18T16:47:16.842Z,-1.85
2022-12-18T16:49:51.724Z,-1.76
2022-12-18T16:52:19.303Z,-1.70
2022-12-18T16:54:46.246Z,-1.76
2022-12-18T16:57:18.038Z,-1.79
2022-12-18T16:59:45.882Z,-1.78
2022-12-18T17:02:30.373Z,-1.78
2022-12-18T17:04:58.625Z,-1.85
2022-12-18T17:07:27.355Z,-1.80
2022-12-18T17:09:55.159Z,-1.83
2022-12-18T17:12:23.559Z,-1.95
2022-12-18T17:14:50.697Z,-1.83
2022-12-18T17:17:21.482Z,-1.91
2022-12-18T17:19:50.256Z,-1.85
2022-12-18T17:22:17.873Z,-2.02
2022-12-18T17:24:44.962Z,-2.08
2022-12-18T17:27:12.209Z,-2.07
2022-12-18T17:29:45.380Z,-2.01
2022-12-18T17:32:14.972Z,-2.00
2022-12-18T17:34:42.243Z,-2.00
2022-12-18T17:37:09.902Z,-1.99
2022-12-18T17:39:37.461Z,-1.96
2022-12-18T17:42:05.313Z,-1.98
2022-12-18T17:44:34.479Z,-2.12
2022-12-18T17:47:02.381Z,-2.11
2022-12-18T17:49:29.683Z,-2.11
2022-12-18T17:51:56.668Z,-2.15
2022-12-18T17:54:23.883Z,-2.14
2022-12-18T17:56:51.029Z,-2.09
2022-12-18T17:59:18.060Z,-2.08
2022-12-18T18:01:45.724Z,-2.01
2022-12-18T18:04:14.135Z,-2.01
2022-12-18T18:06:41.789Z,-1.92
2022-12-18T18:09:15.135Z,-1.92
2022-12-18T18:12:03.739Z,-1.98
2022-12-18T18:14:31.409Z,-2.05
2022-12-18T18:17:04.307Z,-2.03
2022-12-18T18:19:33.119Z,-2.10
2022-12-18T18:22:00.503Z,-2.21
2022-12-18T18:24:28.148Z,-2.24
2022-12-18T18:26:55.102Z,-2.30
2022-12-18T18:29:26.706Z,-2.26
2022-12-18T18:31:54.904Z,-2.26
2022-12-18T18:34:28.765Z,-2.23
2022-12-18T18:36:55.825Z,-2.29
2022-12-18T18:39:23.460Z,-2.32
2022-12-18T18:41:50.578Z,-2.33
2022-12-18T18:44:20.652Z,-2.46
2022-12-18T18:46:58.543Z,-2.51
2022-12-18T18:49:27.731Z,-2.55
2022-12-18T18:51:56.542Z,-2.68
2022-12-18T18:54:24.614Z,-2.62
2022-12-18T18:59:38.908Z,-2.73
2022-12-18T19:02:06.539Z,-2.79
2022-12-18T19:04:34.613Z,-2.73
2022-12-18T19:07:01.642Z,-2.70
2022-12-18T19:09:29.513Z,-2.69
2022-12-18T19:12:15.718Z,-2.75
2022-12-18T19:14:43.987Z,-2.78
2022-12-18T19:17:11.394Z,-2.77
2022-12-18T19:19:38.960Z,-2.81
2022-12-18T19:22:06.323Z,-2.92
2022-12-18T19:24:33.379Z,-3.03
2022-12-18T19:27:00.378Z,-3.06
2022-12-18T19:29:27.441Z,-3.01
2022-12-18T19:31:54.433Z,-2.99
2022-12-18T19:34:21.534Z,-3.06
2022-12-18T19:36:48.520Z,-3.06
2022-12-18T19:39:19.275Z,-3.02
2022-12-18T19:41:47.309Z,-2.96
2022-12-18T19:44:16.799Z,-3.10
2022-12-18T19:46:46.258Z,-3.16
2022-12-18T19:49:17.701Z,-3.28
2022-12-18T19:51:45.848Z,-3.28
2022-12-18T19:54:16.908Z,-3.24
2022-12-18T19:56:45.466Z,-3.25
2022-12-18T19:59:12.879Z,-3.35
2022-12-18T20:01:40.235Z,-3.31
2022-12-18T20:04:07.523Z,-3.36
2022-12-18T20:06:56.500Z,-3.38
2022-12-18T20:09:23.698Z,-3.48
2022-12-18T20:11:50.871Z,-3.43
2022-12-18T20:14:22.688Z,-3.47
2022-12-18T20:16:51.534Z,-3.57
2022-12-18T20:19:19.357Z,-3.53
2022-12-18T20:21:46.635Z,-3.45
2022-12-18T20:24:13.810Z,-3.64
2022-12-18T20:26:40.895Z,-3.66
2022-12-18T20:29:07.910Z,-3.67
2022-12-18T20:31:35.113Z,-3.69
2022-12-18T20:34:02.711Z,-3.63
2022-12-18T20:36:32.835Z,-3.58
2022-12-18T20:39:02.626Z,-3.68
2022-12-18T20:41:38.085Z,-3.63
2022-12-18T20:44:11.185Z,-3.54
2022-12-18T20:46:52.913Z,-3.50
2022-12-18T20:49:19.952Z,-3.58
2022-12-18T20:51:51.602Z,-3.53
2022-12-18T20:54:18.627Z,-3.55
2022-12-18T20:56:45.597Z,-3.61
2022-12-18T20:59:12.957Z,-3.60
2022-12-18T21:01:40.859Z,-3.53
2022-12-18T21:04:14.507Z,-3.45
2022-12-18T21:06:42.922Z,-3.55
2022-12-18T21:09:12.994Z,-3.51
2022-12-18T21:12:10.374Z,-3.58
2022-12-18T21:14:39.443Z,-3.61
2022-12-18T21:17:06.578Z,-3.44
2022-12-18T21:19:33.627Z,-3.52
2022-12-18T21:22:00.856Z,-3.60
2022-12-18T21:24:28.196Z,-3.60
2022-12-18T21:26:58.990Z,-3.64
2022-12-18T21:29:26.724Z,-3.59
2022-12-18T21:31:54.958Z,-3.61
2022-12-18T21:34:30.318Z,-3.62
2022-12-18T21:36:59.734Z,-3.64
2022-12-18T21:39:28.675Z,-3.49
2022-12-18T21:42:15.212Z,-3.46
2022-12-18T21:44:43.293Z,-3.50
2022-12-18T21:47:22.387Z,-3.55
2022-12-18T21:49:53.641Z,-3.53
2022-12-18T21:52:29.834Z,-3.60
2022-12-18T21:55:08.909Z,-3.57
2022-12-18T21:57:39.102Z,-3.49
2022-12-18T22:00:10.517Z,-3.59
2022-12-18T22:02:39.882Z,-3.77
2022-12-18T22:05:07.561Z,-3.79
2022-12-18T22:07:34.723Z,-3.77
2022-12-18T22:10:02.169Z,-3.74
2022-12-18T22:12:38.050Z,-3.63
2022-12-18T22:15:21.011Z,-3.70
2022-12-18T22:17:50.527Z,-3.60
2022-12-18T22:20:20.194Z,-3.66
2022-12-18T22:22:48.580Z,-3.67
2022-12-18T22:25:15.593Z,-3.80
2022-12-18T22:27:43.130Z,-3.84
2022-12-18T22:30:14.488Z,-3.81
2022-12-18T22:32:41.494Z,-3.86
2022-12-18T22:35:14.290Z,-3.84
2022-12-18T22:37:42.919Z,-3.80
2022-12-18T22:40:25.446Z,-3.80
2022-12-18T22:42:54.466Z,-3.73
2022-12-18T22:45:22.932Z,-3.78
2022-12-18T22:47:50.485Z,-3.73
2022-12-18T22:50:17.757Z,-3.81
2022-12-18T22:52:45.012Z,-3.85
2022-12-18T22:55:11.950Z,-3.73
2022-12-18T22:57:40.728Z,-3.77
2022-12-18T23:00:13.549Z,-3.77
2022-12-18T23:02:40.774Z,-3.83
2022-12-18T23:05:08.567Z,-3.81
2022-12-18T23:07:35.656Z,-3.89
2022-12-18T23:10:02.630Z,-3.87
2022-12-18T23:12:29.587Z,-3.77
2022-12-18T23:14:56.624Z,-3.82
2022-12-18T23:17:23.659Z,-3.87
2022-12-18T23:19:51.108Z,-3.84
2022-12-18T23:22:18.279Z,-3.86
2022-12-18T23:24:46.064Z,-3.79
2022-12-18T23:27:13.213Z,-3.74
2022-12-18T23:29:40.868Z,-3.75
2022-12-18T23:32:08.494Z,-3.79
2022-12-18T23:34:35.531Z,-3.76
2022-12-18T23:37:03.832Z,-3.78
2022-12-18T23:39:31.227Z,-3.90
2022-12-18T23:42:01.725Z,-3.80
2022-12-18T23:44:28.925Z,-3.82
2022-12-18T23:46:56.157Z,-3.85
2022-12-18T23:49:23.419Z,-3.78
2022-12-18T23:51:50.714Z,-3.87
2022-12-18T23:54:22.369Z,-3.83
2022-12-18T23:57:00.900Z,-3.86
2022-12-18T23:59:27.880Z,-4.00
